^^
Station Historical Data
Daily Summary for April 11, 2017 Units:  Metric    English   Both
« Previous Day
Next Day »
Daily Weekly Monthly Yearly Custom
  High: Low: Average:
Temperature: 32.7 °C 16.8 °C 20.1 °C
Dew Point: 12 °C 5.1 °C 6.9 °C
Humidity: 55% 19% 44%
Wind Speed: 28.8km/h 0km/h 1.1km/h
Wind Gust: 37km/h - -
Wind- - SSW
Pressure: 1011.7 hPa 1006 hPa -
Precipitation: 0 mm    
Historical Graphs
 
 
Tabular Data for April 11, 2017
Time Temperature Dew Point Pressure Wind Wind Speed Wind Gust Humidity Rainfall Rate (Hourly) solar Conditions
01:15 18.7 °C 5.9 °C 1011.7 hPa Calm     43% 0 mm 0.0 W/m2
01:20 18.7 °C 5.5 °C 1011.7 hPa Calm     42% 0 mm 0.0 W/m2
01:26 18.8 °C 5.6 °C 1011.7 hPa Calm     42% 0 mm 0.0 W/m2
01:32 18.8 °C 6 °C 1011.7 hPa Calm     43% 0 mm 0.0 W/m2
01:42 18.8 °C 5.6 °C 1011.4 hPa Calm     42% 0 mm 0.0 W/m2
01:47 18.6 °C 5.1 °C 1011.4 hPa Calm     41% 0 mm 0.0 W/m2
01:52 18.4 °C 5.6 °C 1011.4 hPa Calm     43% 0 mm 0.0 W/m2
01:57 18.2 °C 5.7 °C 1011.1 hPa Calm     44% 0 mm 0.0 W/m2
02:08 18.2 °C 6.4 °C 1011.4 hPa Calm     46% 0 mm 0.0 W/m2
02:13 18.6 °C 6.4 °C 1011.4 hPa Calm     45% 0 mm 0.0 W/m2
02:18 18.8 °C 6.3 °C 1011.1 hPa Calm     44% 0 mm 0.0 W/m2
02:28 19.1 °C 6.6 °C 1011.1 hPa Calm     44% 0 mm 0.0 W/m2
02:43 19.6 °C 7 °C 1011.1 hPa Calm     44% 0 mm 0.0 W/m2
02:48 19.5 °C 7.2 °C 1010.7 hPa Calm     45% 0 mm 0.0 W/m2
02:54 19.4 °C 7.2 °C 1010.7 hPa Calm     45% 0 mm 0.0 W/m2
02:59 19.3 °C 7.4 °C 1010.7 hPa Calm     46% 0 mm 0.0 W/m2
03:04 19.3 °C 7.4 °C 1010.7 hPa Calm     46% 0 mm 0.0 W/m2
03:09 19.1 °C 7.2 °C 1010.7 hPa Calm     46% 0 mm 0.0 W/m2
03:20 18.9 °C 7.3 °C 1010.7 hPa Calm     47% 0 mm 0.0 W/m2
03:35 18.7 °C 7.2 °C 1010.4 hPa Calm     47% 0 mm 0.0 W/m2
03:40 18.6 °C 7.1 °C 1010.4 hPa Calm     47% 0 mm 0.0 W/m2
03:50 18.4 °C 6.6 °C 1010.4 hPa Calm     46% 0 mm 0.0 W/m2
03:56 18.3 °C 6.8 °C 1010.4 hPa Calm     47% 0 mm 0.0 W/m2
04:01 18.3 °C 7.1 °C 1010.4 hPa Calm     48% 0 mm 0.0 W/m2
04:06 18.1 °C 6.6 °C 1010.4 hPa Calm     47% 0 mm 0.0 W/m2
04:11 18 °C 6.8 °C 1010.4 hPa Calm     48% 0 mm 0.0 W/m2
04:17 17.9 °C 6.7 °C 1010.4 hPa Calm     48% 0 mm 0.0 W/m2
04:22 17.9 °C 7 °C 1010.7 hPa Calm     49% 0 mm 0.0 W/m2
04:27 17.8 °C 6.9 °C 1010.7 hPa Calm     49% 0 mm 0.0 W/m2
04:32 17.8 °C 6.9 °C 1010.7 hPa Calm     49% 0 mm 0.0 W/m2
04:37 17.7 °C 7.1 °C 1010.7 hPa Calm     50% 0 mm 0.0 W/m2
04:42 17.6 °C 7.3 °C 1010.7 hPa Calm     51% 0 mm 0.0 W/m2
04:47 17.5 °C 7 °C 1010.7 hPa Calm     50% 0 mm 0.0 W/m2
04:52 17.4 °C 7.2 °C 1010.7 hPa Calm     51% 0 mm 0.0 W/m2
04:58 17.5 °C 7 °C 1010.7 hPa Calm     50% 0 mm 0.0 W/m2
05:03 17.5 °C 7.2 °C 1010.7 hPa Calm     51% 0 mm 0.0 W/m2
05:08 17.5 °C 7.2 °C 1010.7 hPa Calm     51% 0 mm 0.0 W/m2
05:13 17.5 °C 7 °C 1010.7 hPa Calm     50% 0 mm 0.0 W/m2
05:18 17.4 °C 6.9 °C 1010.7 hPa Calm     50% 0 mm 0.0 W/m2
05:23 17.4 °C 7.2 °C 1010.7 hPa Calm     51% 0 mm 0.0 W/m2
05:29 17.3 °C 6.8 °C 1010.7 hPa Calm     50% 0 mm 0.0 W/m2
05:34 17.2 °C 7 °C 1010.7 hPa Calm     51% 0 mm 0.0 W/m2
05:40 17.2 °C 7 °C 1010.7 hPa Calm     51% 0 mm 0.0 W/m2
05:45 17.1 °C 6.9 °C 1010.7 hPa Calm     51% 0 mm 0.0 W/m2
05:50 17.1 °C 6.9 °C 1010.7 hPa Calm     51% 0 mm 0.0 W/m2
06:00 17.1 °C 6.9 °C 1011.1 hPa Calm     51% 0 mm 0.0 W/m2
06:05 17 °C 6.8 °C 1011.1 hPa Calm     51% 0 mm 5.0 W/m2
06:11 16.9 °C 6.7 °C 1011.1 hPa Calm     51% 0 mm 7.0 W/m2
06:21 16.8 °C 6.6 °C 1011.1 hPa Calm     51% 0 mm 12.0 W/m2
06:26 16.8 °C 6.9 °C 1011.1 hPa Calm     52% 0 mm 16.0 W/m2
06:31 16.9 °C 7 °C 1011.1 hPa Calm     52% 0 mm 18.0 W/m2
06:36 17 °C 7.1 °C 1011.1 hPa Calm     52% 0 mm 26.0 W/m2
06:41 17.1 °C 6.9 °C 1011.1 hPa Calm     51% 0 mm 60.0 W/m2
06:52 17.8 °C 7.2 °C 1011.1 hPa Calm     50% 0 mm 93.0 W/m2
07:13 19 °C 7.7 °C 1011.1 hPa Calm     48% 0 mm 179.0 W/m2
07:20 19.4 °C 8.1 °C 1011.1 hPa Calm     48% 0 mm 200.0 W/m2
07:26 20.9 °C 11.5 °C 1011.1 hPa Calm     55% 0 mm 241.0 W/m2
07:32 21.7 °C 12 °C 1011.1 hPa Calm     54% 0 mm 260.0 W/m2
08:49 25.5 °C 11.6 °C 1011.4 hPa Calm     42% 0 mm 478.0 W/m2
08:56 25.6 °C 11.4 °C 1011.1 hPa SE 7.9 km/h 8 km/h 41% 0 mm 508.0 W/m2
16:31 32.7 °C 6.1 °C 1006 hPa Calm   3.2 km/h 19% 0 mm 104.0 W/m2
16:45 32 °C 5.5 °C 1006 hPa Calm     19% 0 mm 44.0 W/m2
17:03 32 °C 5.5 °C 1006 hPa Calm     19% 0 mm 21.0 W/m2
17:33 31.1 °C 6.2 °C 1006 hPa Calm     21% 0 mm 5.0 W/m2
17:47 30.8 °C 6 °C 1006 hPa Calm     21% 0 mm 0.0 W/m2
18:02 30.2 °C 6.8 °C 1006.3 hPa WNW 16.3 km/h 16.3 km/h 23% 0 mm 0.0 W/m2
18:16 29.4 °C 6.1 °C 1006.7 hPa SSW 28.8 km/h 37 km/h 23% 0 mm 0.0 W/m2
18:57 28.9 °C 5.7 °C 1007.3 hPa SSW 9.7 km/h 22.5 km/h 23% 0 mm 0.0 W/m2
19:13 28.8 °C 5.6 °C 1008 hPa SSW 11.1 km/h 16.1 km/h 23% 0 mm 0.0 W/m2
19:44 28.6 °C 6.1 °C 1008.4 hPa Calm     24% 0 mm 0.0 W/m2
Canyon Roadhouse, Fishriver Canyon, Namibia
Compliments of Weather Underground - 2 mb